createdAt,value
2023-07-07T00:00:16.444Z,218.34
2023-07-07T00:01:16.488Z,217.98
2023-07-07T00:02:16.588Z,216.92
2023-07-07T00:03:16.614Z,218.99
2023-07-07T00:04:16.754Z,218.64
2023-07-07T00:05:16.741Z,217.62
2023-07-07T00:06:16.805Z,219.48
2023-07-07T00:07:16.894Z,219.69
2023-07-07T00:08:16.930Z,219.88
2023-07-07T00:09:17.014Z,220.55
2023-07-07T00:10:17.049Z,216.90
2023-07-07T00:11:17.139Z,216.71
2023-07-07T00:12:17.188Z,216.86
2023-07-07T00:13:17.241Z,217.36
2023-07-07T00:14:17.303Z,218.73
2023-07-07T00:15:17.374Z,217.89
2023-07-07T00:16:17.440Z,217.25
2023-07-07T00:17:17.498Z,216.14
2023-07-07T00:18:17.553Z,217.93
2023-07-07T00:19:17.627Z,221.63
2023-07-07T00:20:17.691Z,217.20
2023-07-07T00:21:17.742Z,218.91
2023-07-07T00:22:17.802Z,216.52
2023-07-07T00:23:17.869Z,219.61
2023-07-07T00:24:17.927Z,217.29
2023-07-07T00:25:17.997Z,218.22
2023-07-07T00:26:18.065Z,216.88
2023-07-07T00:27:18.185Z,221.19
2023-07-07T00:28:18.204Z,216.88
2023-07-07T00:29:18.267Z,217.41
2023-07-07T00:30:18.320Z,219.56
2023-07-07T00:31:18.413Z,220.86
2023-07-07T00:32:18.462Z,215.68
2023-07-07T00:33:18.509Z,214.78
2023-07-07T00:34:18.574Z,218.58
2023-07-07T00:35:18.631Z,219.72
2023-07-07T00:36:18.691Z,216.47
2023-07-07T00:37:18.772Z,218.22
2023-07-07T00:38:18.822Z,214.79
2023-07-07T00:39:18.898Z,218.03
2023-07-07T00:40:18.955Z,214.16
2023-07-07T00:41:18.997Z,216.70
2023-07-07T00:42:19.062Z,215.83
2023-07-07T00:43:19.116Z,216.50
2023-07-07T00:44:19.201Z,214.69
2023-07-07T00:45:19.237Z,216.82
2023-07-07T00:46:19.318Z,219.83
2023-07-07T00:47:19.356Z,216.72
2023-07-07T00:48:19.409Z,213.75
2023-07-07T00:49:19.495Z,216.72
2023-07-07T00:50:19.543Z,215.43
2023-07-07T00:51:19.601Z,218.26
2023-07-07T00:52:19.656Z,215.46
2023-07-07T00:53:19.724Z,218.61
2023-07-07T00:54:19.789Z,216.51
2023-07-07T00:55:19.859Z,217.55
2023-07-07T00:56:19.898Z,216.69
2023-07-07T00:57:19.969Z,217.07
2023-07-07T00:58:20.033Z,213.32
2023-07-07T00:59:20.098Z,215.14
2023-07-07T01:00:20.161Z,214.43
2023-07-07T01:01:20.170Z,214.68
2023-07-07T01:02:20.252Z,215.24
2023-07-07T01:03:20.145Z,215.41
2023-07-07T01:04:20.168Z,217.46
2023-07-07T01:05:20.122Z,216.48
2023-07-07T01:06:27.645Z,217.09
2023-07-07T01:07:20.132Z,217.50
2023-07-07T01:08:20.128Z,217.93
2023-07-07T01:09:20.113Z,217.74
2023-07-07T01:10:20.111Z,216.94
2023-07-07T01:11:20.092Z,217.44
2023-07-07T01:12:20.351Z,219.58
2023-07-07T01:13:20.118Z,217.13
2023-07-07T01:14:20.076Z,212.97
2023-07-07T01:15:20.073Z,215.03
2023-07-07T01:16:20.102Z,214.84
2023-07-07T01:17:20.367Z,216.70
2023-07-07T01:18:20.103Z,213.41
2023-07-07T01:19:20.045Z,217.36
2023-07-07T01:20:20.044Z,213.45
2023-07-07T01:21:20.076Z,211.45
2023-07-07T01:22:20.345Z,215.28
2023-07-07T01:23:20.021Z,214.48
2023-07-07T01:24:20.212Z,213.55
2023-07-07T01:25:20.163Z,213.76
2023-07-07T01:26:20.177Z,211.59
2023-07-07T01:27:20.262Z,213.25
2023-07-07T01:28:20.304Z,212.98
2023-07-07T01:29:20.356Z,212.76
2023-07-07T01:30:20.432Z,212.08
2023-07-07T01:31:20.506Z,212.49
2023-07-07T01:32:20.544Z,212.29
2023-07-07T01:33:20.600Z,212.59
2023-07-07T01:34:20.658Z,208.24
2023-07-07T01:35:20.731Z,212.93
2023-07-07T01:36:20.766Z,210.74
2023-07-07T01:37:20.842Z,212.40
2023-07-07T01:38:20.897Z,210.93
2023-07-07T01:39:20.938Z,211.67
2023-07-07T01:40:20.986Z,210.63
2023-07-07T01:41:21.048Z,212.60
2023-07-07T01:42:21.114Z,210.59
2023-07-07T01:43:21.164Z,213.08
2023-07-07T01:44:21.201Z,211.53
2023-07-07T01:45:21.329Z,210.84
2023-07-07T01:46:21.395Z,210.98
2023-07-07T01:47:21.405Z,213.67
2023-07-07T01:48:21.467Z,213.76
2023-07-07T01:49:21.498Z,210.84
2023-07-07T01:50:21.577Z,207.32
2023-07-07T01:51:21.686Z,211.25
2023-07-07T01:52:21.666Z,212.12
2023-07-07T01:53:21.712Z,210.82
2023-07-07T01:54:21.769Z,213.62
2023-07-07T01:55:21.824Z,210.48
2023-07-07T01:56:21.845Z,210.33
2023-07-07T01:57:21.893Z,211.62
2023-07-07T01:58:21.937Z,208.26
2023-07-07T01:59:21.990Z,205.82
2023-07-07T02:00:22.057Z,206.71
2023-07-07T02:01:22.101Z,206.83
2023-07-07T02:02:22.143Z,211.20
2023-07-07T02:03:22.171Z,206.45
2023-07-07T02:04:22.208Z,207.16
2023-07-07T02:05:22.258Z,211.06
2023-07-07T02:06:22.286Z,206.96
2023-07-07T02:07:22.323Z,204.37
2023-07-07T02:08:22.376Z,208.79
2023-07-07T02:09:22.420Z,211.10
2023-07-07T02:10:22.465Z,210.03
2023-07-07T02:11:22.631Z,210.07
2023-07-07T02:12:22.582Z,210.04
2023-07-07T02:13:22.684Z,208.61
2023-07-07T02:14:22.688Z,209.77
2023-07-07T02:15:22.692Z,206.48
2023-07-07T02:16:22.701Z,208.37
2023-07-07T02:17:22.814Z,209.70
2023-07-07T02:18:22.930Z,207.27
2023-07-07T02:19:22.810Z,208.40
2023-07-07T02:20:22.888Z,204.63
2023-07-07T02:21:22.947Z,207.14
2023-07-07T02:22:23.029Z,206.61
2023-07-07T02:23:23.084Z,207.19
2023-07-07T02:24:23.121Z,204.21
2023-07-07T02:25:23.221Z,209.66
2023-07-07T02:26:23.254Z,206.59
2023-07-07T02:27:23.301Z,203.14
2023-07-07T02:28:23.376Z,202.01
2023-07-07T02:29:23.411Z,207.45
2023-07-07T02:30:23.475Z,206.32
2023-07-07T02:31:23.561Z,203.35
2023-07-07T02:32:23.590Z,205.01
2023-07-07T02:33:23.607Z,204.75
2023-07-07T02:34:23.679Z,205.47
2023-07-07T02:35:23.718Z,205.32
2023-07-07T02:36:23.763Z,202.26
2023-07-07T02:37:23.848Z,206.38
2023-07-07T02:38:23.849Z,201.84
2023-07-07T02:39:23.921Z,202.03
2023-07-07T02:40:23.991Z,201.96
2023-07-07T02:41:24.053Z,204.04
2023-07-07T02:42:24.116Z,201.75
2023-07-07T02:43:24.143Z,201.61
2023-07-07T02:44:24.218Z,202.92
2023-07-07T02:45:24.267Z,203.27
2023-07-07T02:46:24.395Z,201.95
2023-07-07T02:47:24.421Z,203.33
2023-07-07T02:48:24.422Z,198.39
2023-07-07T02:49:24.463Z,201.20
2023-07-07T02:50:24.528Z,202.21
2023-07-07T02:51:24.574Z,200.97
2023-07-07T02:52:24.657Z,200.47
2023-07-07T02:53:24.658Z,199.43
2023-07-07T02:54:24.670Z,198.21
2023-07-07T02:55:24.695Z,199.25
2023-07-07T02:56:26.439Z,200.42
2023-07-07T02:57:24.747Z,203.13
2023-07-07T02:58:24.703Z,199.73
2023-07-07T02:59:24.709Z,202.91
2023-07-07T03:00:24.694Z,202.04
2023-07-07T03:01:24.756Z,199.95
2023-07-07T03:02:24.711Z,200.03
2023-07-07T03:03:24.713Z,197.78
2023-07-07T03:04:24.671Z,199.23
2023-07-07T03:05:24.658Z,200.17
2023-07-07T03:06:24.651Z,199.08
2023-07-07T03:07:24.677Z,200.62
2023-07-07T03:08:24.641Z,196.67
2023-07-07T03:09:24.650Z,199.02
2023-07-07T03:10:24.613Z,199.12
2023-07-07T03:11:24.621Z,196.32
2023-07-07T03:12:24.616Z,196.41
2023-07-07T03:13:27.212Z,195.08
2023-07-07T03:14:24.601Z,195.36
2023-07-07T03:15:24.591Z,196.08
2023-07-07T03:16:24.618Z,194.02
2023-07-07T03:17:24.640Z,196.56
2023-07-07T03:18:24.575Z,196.88
2023-07-07T03:19:24.562Z,195.22
2023-07-07T03:20:24.569Z,196.18
2023-07-07T03:21:24.560Z,194.46
2023-07-07T03:22:24.578Z,196.49
2023-07-07T03:23:24.542Z,195.22
2023-07-07T03:24:24.538Z,197.22
2023-07-07T03:25:24.553Z,196.02
2023-07-07T03:26:24.570Z,196.63
2023-07-07T03:27:25.316Z,193.04
2023-07-07T03:28:24.532Z,195.42
2023-07-07T03:29:24.523Z,196.59
2023-07-07T03:30:24.518Z,196.80
2023-07-07T03:31:24.584Z,190.65
2023-07-07T03:32:24.531Z,194.39
2023-07-07T03:33:24.479Z,196.18
2023-07-07T03:34:24.484Z,196.74
2023-07-07T03:35:24.489Z,194.21
2023-07-07T03:36:24.460Z,190.74
2023-07-07T03:37:24.485Z,194.09
2023-07-07T03:38:24.450Z,192.00
2023-07-07T03:39:24.449Z,192.56
2023-07-07T03:40:24.430Z,192.73
2023-07-07T03:41:24.444Z,191.81
2023-07-07T03:42:24.464Z,192.47
2023-07-07T03:43:24.440Z,192.82
2023-07-07T03:44:24.412Z,192.31
2023-07-07T03:45:24.420Z,192.20
2023-07-07T03:46:24.441Z,193.01
2023-07-07T03:47:24.420Z,189.71
2023-07-07T03:48:24.394Z,188.44
2023-07-07T03:49:24.374Z,192.78
2023-07-07T03:50:24.368Z,192.46
2023-07-07T03:51:24.380Z,190.91
2023-07-07T03:52:24.347Z,190.07
2023-07-07T03:53:24.361Z,186.63
2023-07-07T03:54:24.386Z,186.39
2023-07-07T03:55:24.396Z,187.95
2023-07-07T03:56:24.329Z,190.48
2023-07-07T03:57:24.341Z,187.61
2023-07-07T03:58:24.309Z,188.45
2023-07-07T03:59:24.318Z,186.25
2023-07-07T04:00:24.328Z,189.08
2023-07-07T04:01:24.285Z,188.78
2023-07-07T04:02:24.295Z,186.90
2023-07-07T04:03:24.329Z,188.25
2023-07-07T04:04:24.398Z,189.45
2023-07-07T04:05:24.303Z,186.89
2023-07-07T04:06:24.267Z,188.00
2023-07-07T04:07:24.250Z,184.54
2023-07-07T04:08:24.245Z,186.48
2023-07-07T04:09:24.230Z,186.17
2023-07-07T04:10:24.253Z,187.72
2023-07-07T04:11:24.234Z,187.75
2023-07-07T04:12:24.241Z,185.33
2023-07-07T04:13:24.226Z,188.27
2023-07-07T04:14:24.205Z,187.57
2023-07-07T04:15:24.194Z,182.57
2023-07-07T04:16:24.251Z,186.92
2023-07-07T04:17:24.222Z,188.00
2023-07-07T04:18:24.177Z,185.38
2023-07-07T04:19:24.208Z,183.64
2023-07-07T04:20:24.248Z,180.80
2023-07-07T04:21:24.323Z,183.06
2023-07-07T04:22:24.285Z,183.78
2023-07-07T04:23:24.338Z,183.02
2023-07-07T04:24:24.309Z,184.09
2023-07-07T04:25:24.329Z,184.79
2023-07-07T04:26:24.331Z,182.57
2023-07-07T04:27:24.345Z,181.57
2023-07-07T04:28:24.350Z,181.25
2023-07-07T04:29:24.378Z,183.90
2023-07-07T04:30:24.370Z,184.38
2023-07-07T04:31:24.448Z,180.97
2023-07-07T04:32:24.432Z,179.91
2023-07-07T04:33:24.442Z,178.37
2023-07-07T04:34:24.488Z,181.54
2023-07-07T04:35:24.511Z,179.50
2023-07-07T04:36:24.555Z,182.97
2023-07-07T04:37:24.584Z,180.20
2023-07-07T04:38:24.611Z,179.57
2023-07-07T04:39:24.643Z,182.33
2023-07-07T04:40:24.684Z,178.97
2023-07-07T04:41:24.741Z,180.25
2023-07-07T04:42:24.751Z,177.74
2023-07-07T04:43:24.819Z,177.84
2023-07-07T04:44:24.854Z,177.79
2023-07-07T04:45:24.902Z,181.18
2023-07-07T04:46:24.949Z,178.78
2023-07-07T04:47:24.996Z,180.12
2023-07-07T04:48:25.040Z,177.86
2023-07-07T04:49:25.100Z,177.98
2023-07-07T04:50:25.144Z,173.50
2023-07-07T04:51:25.234Z,175.04
2023-07-07T04:52:25.255Z,174.53
2023-07-07T04:53:25.317Z,176.40
2023-07-07T04:54:25.382Z,171.50
2023-07-07T04:55:25.470Z,174.73
2023-07-07T04:56:25.508Z,172.62
2023-07-07T04:57:25.555Z,176.08
2023-07-07T04:58:25.617Z,172.53
2023-07-07T04:59:25.670Z,172.81
2023-07-07T05:00:25.751Z,171.35
2023-07-07T05:01:25.873Z,174.86
2023-07-07T05:02:25.938Z,167.90
2023-07-07T05:03:25.931Z,170.88
2023-07-07T05:04:25.988Z,168.84
2023-07-07T05:05:26.056Z,167.60
2023-07-07T05:06:26.091Z,167.78
2023-07-07T05:07:26.203Z,166.68
2023-07-07T05:08:26.214Z,167.90
2023-07-07T05:09:26.259Z,164.08
2023-07-07T05:10:26.309Z,166.92
2023-07-07T05:11:26.363Z,166.42
2023-07-07T05:12:26.458Z,163.63
2023-07-07T05:13:26.534Z,165.23
2023-07-07T05:14:26.584Z,162.46
2023-07-07T05:15:26.566Z,160.45
2023-07-07T05:16:26.652Z,160.58
2023-07-07T05:17:26.694Z,161.12
2023-07-07T05:18:26.709Z,161.46
2023-07-07T05:19:26.756Z,158.50
2023-07-07T05:20:26.802Z,155.64
2023-07-07T05:21:26.849Z,157.29
2023-07-07T05:22:26.963Z,150.83
2023-07-07T05:23:26.966Z,152.80
2023-07-07T05:24:26.961Z,150.54
2023-07-07T05:25:27.024Z,150.67
2023-07-07T05:26:27.027Z,149.60
2023-07-07T05:27:27.077Z,152.79
2023-07-07T05:28:27.170Z,140.33
2023-07-07T05:29:27.236Z,127.56
2023-07-07T05:30:27.303Z,122.96
2023-07-07T05:31:27.326Z,114.92
2023-07-07T05:32:27.413Z,113.40
2023-07-07T05:33:27.463Z,113.23
2023-07-07T05:34:27.477Z,117.44
2023-07-07T05:35:27.605Z,114.80
2023-07-07T05:36:27.618Z,118.24
2023-07-07T05:37:28.009Z,127.18
2023-07-07T05:38:27.732Z,121.60
2023-07-07T05:39:27.859Z,117.81
2023-07-07T05:40:27.897Z,115.88
2023-07-07T05:41:27.916Z,118.62
2023-07-07T05:42:27.990Z,116.93
2023-07-07T05:43:27.968Z,118.46
2023-07-07T05:44:27.995Z,119.35
2023-07-07T05:45:27.987Z,114.33
2023-07-07T05:46:28.106Z,127.37
2023-07-07T05:47:28.074Z,125.01
2023-07-07T05:48:28.069Z,131.96
2023-07-07T05:49:28.046Z,130.75
2023-07-07T05:50:28.053Z,121.19
2023-07-07T05:51:28.079Z,123.75
2023-07-07T05:52:28.114Z,122.94
2023-07-07T05:53:28.080Z,118.43
2023-07-07T05:54:28.081Z,117.45
2023-07-07T05:55:28.070Z,119.92
2023-07-07T05:56:28.127Z,115.57
2023-07-07T05:57:28.513Z,122.05
2023-07-07T05:58:28.075Z,122.80
2023-07-07T05:59:28.066Z,118.24
2023-07-07T06:00:28.091Z,116.01
2023-07-07T06:01:28.174Z,115.30
2023-07-07T06:02:28.507Z,117.99
2023-07-07T06:03:28.148Z,113.29
2023-07-07T06:04:28.113Z,114.57
2023-07-07T06:05:28.127Z,114.27
2023-07-07T06:06:28.165Z,110.64
2023-07-07T06:07:28.167Z,106.81
2023-07-07T06:08:28.171Z,107.68
2023-07-07T06:09:28.188Z,108.58
2023-07-07T06:10:28.243Z,105.60
2023-07-07T06:11:28.225Z,103.72
2023-07-07T06:12:30.981Z,102.36
2023-07-07T06:13:28.247Z,104.66
2023-07-07T06:14:28.218Z,105.80
2023-07-07T06:15:28.234Z,100.57
2023-07-07T06:16:28.228Z,100.26
2023-07-07T06:17:28.530Z,96.80
2023-07-07T06:18:28.176Z,98.56
2023-07-07T06:19:28.187Z,95.54
2023-07-07T06:20:28.223Z,93.83
2023-07-07T06:21:28.184Z,94.24
2023-07-07T06:22:28.195Z,84.72
2023-07-07T06:23:28.147Z,79.88
2023-07-07T06:24:28.162Z,82.41
2023-07-07T06:25:28.149Z,82.50
2023-07-07T06:26:28.184Z,80.43
2023-07-07T06:27:28.128Z,79.99
2023-07-07T06:28:28.147Z,77.02
2023-07-07T06:29:28.115Z,76.76
2023-07-07T06:30:28.200Z,74.04
2023-07-07T06:31:28.131Z,72.72
2023-07-07T06:32:28.527Z,67.39
2023-07-07T06:33:28.106Z,65.52
2023-07-07T06:34:28.094Z,60.76
2023-07-07T06:35:28.091Z,62.56
2023-07-07T06:36:28.068Z,58.50
2023-07-07T06:37:28.064Z,54.10
2023-07-07T06:38:28.049Z,54.07
2023-07-07T06:39:28.100Z,46.25
2023-07-07T06:40:28.050Z,44.49
2023-07-07T06:41:28.055Z,38.41
2023-07-07T06:42:28.086Z,35.85
2023-07-07T06:43:28.035Z,29.98
2023-07-07T06:44:28.022Z,26.98
2023-07-07T06:45:28.022Z,29.40
2023-07-07T06:46:28.033Z,29.31
2023-07-07T06:47:28.089Z,25.92
2023-07-07T06:48:27.992Z,28.06
2023-07-07T06:49:27.993Z,33.05
2023-07-07T06:50:27.991Z,32.48
2023-07-07T06:51:27.980Z,34.88
2023-07-07T06:52:27.971Z,25.00
2023-07-07T06:53:27.981Z,29.41
2023-07-07T06:54:27.965Z,25.07
2023-07-07T06:55:27.956Z,30.93
2023-07-07T06:56:27.938Z,28.82
2023-07-07T06:57:27.949Z,28.63
2023-07-07T06:58:27.985Z,32.02
2023-07-07T06:59:27.958Z,39.64
2023-07-07T07:00:27.916Z,34.46
2023-07-07T07:01:27.946Z,32.91
2023-07-07T07:02:28.002Z,32.68
2023-07-07T07:03:27.924Z,40.53
2023-07-07T07:04:27.905Z,47.28
2023-07-07T07:05:27.908Z,42.73
2023-07-07T07:06:27.882Z,44.30
2023-07-07T07:07:27.902Z,37.54
2023-07-07T07:08:27.884Z,30.75
2023-07-07T07:09:27.926Z,29.12
2023-07-07T07:10:27.926Z,29.51
2023-07-07T07:11:27.965Z,44.23
2023-07-07T07:12:28.039Z,48.28
2023-07-07T07:13:28.090Z,32.67
2023-07-07T07:14:28.132Z,27.33
2023-07-07T07:15:28.193Z,34.06
2023-07-07T07:16:28.252Z,28.97
2023-07-07T07:17:28.385Z,33.65
2023-07-07T07:18:28.323Z,35.90
2023-07-07T07:19:28.401Z,39.39
2023-07-07T07:20:28.423Z,44.01
2023-07-07T07:21:28.476Z,44.15
2023-07-07T07:22:28.570Z,45.80
2023-07-07T07:23:28.498Z,47.95
2023-07-07T07:24:28.503Z,52.85
2023-07-07T07:25:28.504Z,60.03
2023-07-07T07:26:28.571Z,62.48
2023-07-07T07:27:28.549Z,69.42
2023-07-07T07:28:28.631Z,69.12
2023-07-07T07:29:28.674Z,61.82
2023-07-07T07:30:28.733Z,68.30
2023-07-07T07:31:28.770Z,68.45
2023-07-07T07:32:28.837Z,69.23
2023-07-07T07:33:28.818Z,68.85
2023-07-07T07:34:28.852Z,71.39
2023-07-07T07:35:28.910Z,71.06
2023-07-07T07:36:28.978Z,71.04
2023-07-07T07:37:28.962Z,73.79
2023-07-07T07:38:28.956Z,70.83
2023-07-07T07:39:28.963Z,74.56
2023-07-07T07:40:28.970Z,74.64
2023-07-07T07:41:28.979Z,76.54
2023-07-07T07:42:29.092Z,77.33
2023-07-07T07:43:28.988Z,77.77
2023-07-07T07:44:28.991Z,82.53
2023-07-07T07:45:28.982Z,81.98
2023-07-07T07:46:28.978Z,85.08
2023-07-07T07:47:29.225Z,86.33
2023-07-07T07:48:29.045Z,92.45
2023-07-07T07:49:28.986Z,94.57
2023-07-07T07:50:28.986Z,93.67
2023-07-07T07:51:36.405Z,98.48
2023-07-07T07:52:30.002Z,98.63
2023-07-07T07:53:28.953Z,98.85
2023-07-07T07:54:28.979Z,100.63
2023-07-07T07:55:28.949Z,100.24
2023-07-07T07:56:28.959Z,102.81
2023-07-07T07:57:29.067Z,106.53
2023-07-07T07:58:28.927Z,108.87
2023-07-07T07:59:28.923Z,109.04
2023-07-07T08:00:28.923Z,108.36
2023-07-07T08:01:28.925Z,109.85
2023-07-07T08:02:29.556Z,110.97
2023-07-07T08:03:29.090Z,110.54
2023-07-07T08:04:29.081Z,110.33
2023-07-07T08:05:29.148Z,113.91
2023-07-07T08:06:29.209Z,113.97
2023-07-07T08:07:29.307Z,112.62
2023-07-07T08:08:29.326Z,114.46
2023-07-07T08:09:29.420Z,115.03
2023-07-07T08:10:29.455Z,117.06
2023-07-07T08:11:29.529Z,117.96
2023-07-07T08:12:29.576Z,119.49
2023-07-07T08:13:40.000Z,119.32
2023-07-07T08:14:30.659Z,119.48
2023-07-07T08:15:29.627Z,119.86
2023-07-07T08:16:29.624Z,120.60
2023-07-07T08:17:29.680Z,121.37
2023-07-07T08:18:29.601Z,122.49
2023-07-07T08:19:29.591Z,122.36
2023-07-07T08:20:29.590Z,121.93
2023-07-07T08:21:29.578Z,122.50
2023-07-07T08:22:29.600Z,120.72
2023-07-07T08:23:29.585Z,123.50
2023-07-07T08:24:29.622Z,122.94
2023-07-07T08:25:29.676Z,124.16
2023-07-07T08:26:29.925Z,123.21
2023-07-07T08:28:29.761Z,127.97
2023-07-07T08:29:29.752Z,125.27
2023-07-07T08:30:29.841Z,127.49
2023-07-07T08:31:29.771Z,126.96
2023-07-07T08:32:29.799Z,129.26
2023-07-07T08:33:29.737Z,128.01
2023-07-07T08:34:35.037Z,128.89
2023-07-07T08:35:30.783Z,129.28
2023-07-07T08:36:29.768Z,130.00
2023-07-07T08:37:29.769Z,130.02
2023-07-07T08:38:29.767Z,131.39
2023-07-07T08:39:29.752Z,130.97
2023-07-07T08:40:29.702Z,133.88
2023-07-07T08:41:29.705Z,132.95
2023-07-07T08:42:29.690Z,134.22
2023-07-07T08:43:29.663Z,135.67
2023-07-07T08:44:29.656Z,134.11
2023-07-07T08:45:29.646Z,135.64
2023-07-07T08:46:29.715Z,135.80
2023-07-07T08:47:29.735Z,135.95
2023-07-07T08:48:29.771Z,135.61
2023-07-07T08:49:29.816Z,136.32
2023-07-07T08:50:30.573Z,137.59
2023-07-07T08:51:29.932Z,137.66
2023-07-07T08:52:29.959Z,137.03
2023-07-07T08:53:30.009Z,138.70
2023-07-07T08:55:31.053Z,136.94
2023-07-07T08:56:30.042Z,137.53
2023-07-07T08:57:30.026Z,138.84
2023-07-07T08:58:30.441Z,140.85
2023-07-07T08:59:30.030Z,141.59
2023-07-07T09:00:30.007Z,141.65
2023-07-07T09:01:30.001Z,142.24
2023-07-07T09:02:30.064Z,143.60
2023-07-07T09:03:30.039Z,142.74
2023-07-07T09:04:30.046Z,147.05
2023-07-07T09:05:30.022Z,146.76
2023-07-07T09:06:29.986Z,146.34
2023-07-07T09:07:30.010Z,145.02
2023-07-07T09:08:32.860Z,143.84
2023-07-07T09:09:31.040Z,144.14
2023-07-07T09:10:30.037Z,145.21
2023-07-07T09:11:30.049Z,145.50
2023-07-07T09:12:30.028Z,147.79
2023-07-07T09:13:30.033Z,148.74
2023-07-07T09:14:30.013Z,149.60
2023-07-07T09:15:30.038Z,149.04
2023-07-07T09:16:30.059Z,147.93
2023-07-07T09:17:30.076Z,150.29
2023-07-07T09:18:29.983Z,149.95
2023-07-07T09:19:29.974Z,149.58
2023-07-07T09:20:30.006Z,148.84
2023-07-07T09:21:30.051Z,149.40
2023-07-07T09:22:30.099Z,151.47
2023-07-07T09:23:30.170Z,152.89
2023-07-07T09:24:30.225Z,152.01
2023-07-07T09:25:44.489Z,151.83
2023-07-07T09:26:31.248Z,152.01
2023-07-07T09:27:30.246Z,152.21
2023-07-07T09:28:30.249Z,152.28
2023-07-07T09:29:30.229Z,152.22
2023-07-07T09:30:30.215Z,154.29
2023-07-07T09:31:30.246Z,154.05
2023-07-07T09:32:30.220Z,152.59
2023-07-07T09:33:30.210Z,153.25
2023-07-07T09:34:30.225Z,150.52
2023-07-07T09:35:30.193Z,154.32
2023-07-07T09:36:30.236Z,155.73
2023-07-07T09:37:30.273Z,154.74
2023-07-07T09:38:30.331Z,152.99
2023-07-07T09:39:30.392Z,152.21
2023-07-07T09:40:30.446Z,152.99
2023-07-07T09:41:30.492Z,150.75
2023-07-07T09:42:30.545Z,151.42
2023-07-07T09:43:33.599Z,151.90
2023-07-07T09:44:31.609Z,152.05
2023-07-07T09:45:30.584Z,152.48
2023-07-07T09:46:30.720Z,152.01
2023-07-07T09:47:30.580Z,154.23
2023-07-07T09:48:30.564Z,150.20
2023-07-07T09:49:30.556Z,152.50
2023-07-07T09:50:30.579Z,153.18
2023-07-07T09:51:30.544Z,149.52
2023-07-07T09:52:30.532Z,151.86
2023-07-07T09:53:38.354Z,149.55
2023-07-07T09:54:31.519Z,149.79
2023-07-07T09:55:30.506Z,150.38
2023-07-07T09:56:30.538Z,149.86
2023-07-07T09:57:30.498Z,148.73
2023-07-07T09:58:30.522Z,146.02
2023-07-07T09:59:30.486Z,150.43
2023-07-07T10:00:44.540Z,150.10
2023-07-07T10:01:31.495Z,150.29
2023-07-07T10:02:30.519Z,150.16
2023-07-07T10:03:30.468Z,147.59
2023-07-07T10:04:30.529Z,143.92
2023-07-07T10:05:30.461Z,146.59
2023-07-07T10:06:30.443Z,144.53
2023-07-07T10:07:30.434Z,140.36
2023-07-07T10:08:30.448Z,143.24
2023-07-07T10:09:30.428Z,142.26
2023-07-07T10:10:30.446Z,140.33
2023-07-07T10:12:35.200Z,147.69
2023-07-07T10:13:31.518Z,148.07
2023-07-07T10:14:30.481Z,148.33
2023-07-07T10:15:30.451Z,148.17
2023-07-07T10:16:30.498Z,145.36
2023-07-07T10:17:30.494Z,142.66
2023-07-07T10:18:41.353Z,142.69
2023-07-07T10:19:31.430Z,142.96
2023-07-07T10:20:30.416Z,143.90
2023-07-07T10:21:30.407Z,144.28
2023-07-07T10:22:30.394Z,142.99
2023-07-07T10:23:30.399Z,147.37
2023-07-07T10:24:30.386Z,142.51
2023-07-07T10:25:30.383Z,145.13
2023-07-07T10:26:30.378Z,142.50
2023-07-07T10:27:30.378Z,139.64
2023-07-07T10:28:30.393Z,145.20
2023-07-07T10:29:30.454Z,141.32
2023-07-07T10:30:30.527Z,140.55
2023-07-07T10:31:30.613Z,141.03
2023-07-07T10:32:30.705Z,144.43
2023-07-07T10:33:30.705Z,141.20
2023-07-07T10:34:30.760Z,139.70
2023-07-07T10:35:30.826Z,141.14
2023-07-07T10:36:30.920Z,145.69
2023-07-07T10:37:30.937Z,143.33
2023-07-07T10:38:35.330Z,139.96
2023-07-07T10:39:32.030Z,140.17
2023-07-07T10:40:31.006Z,140.79
2023-07-07T10:41:30.996Z,141.45
2023-07-07T10:42:30.998Z,142.47
2023-07-07T10:43:30.976Z,142.34
2023-07-07T10:44:30.972Z,139.01
2023-07-07T10:45:30.958Z,138.20
2023-07-07T10:46:30.964Z,139.56
2023-07-07T10:47:31.002Z,138.02
2023-07-07T10:48:30.997Z,135.79
2023-07-07T10:49:31.025Z,135.37
2023-07-07T10:50:31.105Z,136.54
2023-07-07T10:51:31.159Z,137.42
2023-07-07T10:53:31.207Z,139.24
2023-07-07T10:54:31.332Z,134.85
2023-07-07T10:55:31.210Z,131.69
2023-07-07T10:56:31.194Z,128.48
2023-07-07T10:57:31.178Z,131.27
2023-07-07T10:58:31.201Z,131.44
2023-07-07T10:59:31.162Z,137.05
2023-07-07T11:00:33.381Z,132.16
2023-07-07T11:01:31.218Z,132.33
2023-07-07T11:02:31.166Z,132.49
2023-07-07T11:03:31.294Z,132.21
2023-07-07T11:04:31.150Z,132.50
2023-07-07T11:05:31.127Z,133.23
2023-07-07T11:06:31.953Z,128.45
2023-07-07T11:07:31.114Z,128.93
2023-07-07T11:08:31.114Z,125.79
2023-07-07T11:09:31.107Z,126.76
2023-07-07T11:10:32.118Z,123.31
2023-07-07T11:11:31.086Z,121.97
2023-07-07T11:12:33.069Z,119.85
2023-07-07T11:13:31.104Z,119.81
2023-07-07T11:14:31.066Z,117.70
2023-07-07T11:15:31.079Z,118.33
2023-07-07T11:16:31.083Z,123.59
2023-07-07T11:17:31.081Z,122.61
2023-07-07T11:18:31.053Z,121.76
2023-07-07T11:19:31.044Z,120.03
2023-07-07T11:20:31.037Z,117.47
2023-07-07T11:21:31.025Z,117.71
2023-07-07T11:22:31.015Z,117.90
2023-07-07T11:23:31.035Z,117.06
2023-07-07T11:24:55.072Z,116.12
2023-07-07T11:25:32.092Z,116.31
2023-07-07T11:26:30.978Z,116.88
2023-07-07T11:27:31.038Z,114.97
2023-07-07T11:28:32.836Z,114.39
2023-07-07T11:29:31.001Z,114.37
2023-07-07T11:30:30.980Z,110.38
2023-07-07T11:31:31.005Z,113.28
2023-07-07T11:32:30.961Z,110.95
2023-07-07T11:33:30.968Z,106.74
2023-07-07T11:34:33.005Z,107.84
2023-07-07T11:35:30.931Z,108.28
2023-07-07T11:36:30.941Z,108.42
2023-07-07T11:37:30.921Z,108.08
2023-07-07T11:38:30.965Z,110.45
2023-07-07T11:39:30.919Z,108.37
2023-07-07T11:40:32.739Z,106.70
2023-07-07T11:41:31.112Z,106.82
2023-07-07T11:42:31.150Z,107.42
2023-07-07T11:43:31.231Z,107.26
2023-07-07T11:44:31.240Z,107.50
2023-07-07T11:45:31.310Z,110.46
2023-07-07T11:46:33.984Z,108.59
2023-07-07T11:47:31.389Z,111.14
2023-07-07T11:48:31.383Z,115.58
2023-07-07T11:49:31.348Z,112.20
2023-07-07T11:50:31.331Z,109.23
2023-07-07T11:51:31.323Z,113.25
2023-07-07T11:52:33.978Z,113.49
2023-07-07T11:53:31.322Z,113.75
2023-07-07T11:54:31.307Z,113.73
2023-07-07T11:55:31.302Z,112.51
2023-07-07T11:56:31.287Z,110.57
2023-07-07T11:57:31.300Z,110.09
2023-07-07T11:58:33.812Z,111.25
2023-07-07T11:59:31.275Z,111.40
2023-07-07T12:00:31.263Z,110.65
2023-07-07T12:01:31.250Z,108.88
2023-07-07T12:02:31.244Z,108.69
2023-07-07T12:03:31.345Z,108.95
2023-07-07T12:04:32.051Z,109.56
2023-07-07T12:05:31.353Z,109.75
2023-07-07T12:06:31.245Z,108.47
2023-07-07T12:07:31.289Z,104.48
2023-07-07T12:08:31.334Z,104.89
2023-07-07T12:09:31.392Z,100.59
2023-07-07T12:10:31.452Z,101.59
2023-07-07T12:11:31.531Z,100.22
2023-07-07T12:12:31.568Z,99.66
2023-07-07T12:13:31.681Z,104.26
2023-07-07T12:14:31.682Z,101.28
2023-07-07T12:15:31.758Z,96.91
2023-07-07T12:16:31.832Z,96.95
2023-07-07T12:17:31.898Z,94.85
2023-07-07T12:18:31.935Z,93.87
2023-07-07T12:19:32.028Z,95.31
2023-07-07T12:20:33.685Z,94.39
2023-07-07T12:21:32.038Z,96.94
2023-07-07T12:22:32.037Z,93.95
2023-07-07T12:23:32.049Z,91.20
2023-07-07T12:24:32.042Z,88.42
2023-07-07T12:25:32.014Z,88.40
2023-07-07T12:26:33.540Z,87.77
2023-07-07T12:27:31.992Z,88.15
2023-07-07T12:28:31.987Z,88.52
2023-07-07T12:29:32.007Z,89.61
2023-07-07T12:30:32.045Z,87.48
2023-07-07T12:31:32.052Z,89.14
2023-07-07T12:32:31.977Z,87.37
2023-07-07T12:33:31.962Z,86.67
2023-07-07T12:34:31.952Z,85.62
2023-07-07T12:35:31.970Z,87.63
2023-07-07T12:36:31.931Z,87.90